KPUW/PUW METAR and TAF weather

Enter ICAO airport designator
Station Type Date Time Source
KPUW METAR 2021/09/23 17:53 UTC NOAA

KPUW 231753Z AUTO 22010KT 10SM CLR 16/08 A3030 RMK AO2 SLP261 T01610078 10167 20072 50004


Station Type Date Time Source
KPUW Decoded METAR 2021/09/23 17:53 UTC NOAA

PULLMAN/MOSCOW RGNL AIRPORT , WA, United States (KPUW) 46-45N 117-07W 773M
Sep 23, 2021 - 01:53 PM EDT / 2021.09.23 1753 UTC
Wind: from the SW (220 degrees) at 12 MPH (10 KT):0
Visibility: 10 mile(s):0
Sky conditions: clear
Temperature: 61.0 F (16.1 C)
Dew Point: 46.0 F (7.8 C)
Relative Humidity: 57%
Pressure (altimeter): 30.3 in. Hg (1026 hPa)
Pressure tendency: 0.01 inches (0.4 hPa) higher than three hours ago
ob: KPUW 231753Z AUTO 22010KT 10SM CLR 16/08 A3030 RMK AO2 SLP261 T01610078 10167 20072 50004
cycle: 18

Station Type Date Time Source
KPUW TAF 2021/09/23 18:33 UTC NOAA

TAF KPUW 231730Z 2318/2418 VRB04KT P6SM FEW070 SCT200

Example: see airport list